Lincoln, NM (88338)

4:26 AM MDT on September 15, 2014 (GMT -0600)
RAWS ROSWELL #1 PORTABLE NM US | Change Station
CLOSE
Current Station
Personal Weather Station
Location: Fort Stanton, NM
Elevation: 6109 ft
Nearby Weather Stations

Elev 6109 ft 33.51 °N, 105.50 °W | Updated 46 minutes ago

Scattered Clouds
Scattered Clouds
53 °F
Feels Like 53 °F
N
4
Wind Variable Wind from SW
Gusts 5.0 mph

Today
High -- | Low -- °F
--% Chance of Precip.
Yesterday
High -- | Low -- °F
Precip. -- in
6:45 AM 7:08 PM
Waning Gibbous, 57% visible
Pressure 30.31 in
Visibility 10.0 miles
Clouds Scattered Clouds 700 ft
Dew Point 51 °F
Humidity 94%
Rainfall 0.00 in
Snow Depth 2 in
UV 0 out of 12
Pollen 8.50 out of 12
Air Quality Not available.
Flu Activity Not available.
METAR KSRR 150955Z AUTO 27003KT 10SM SCT007 12/12 A3031 RMK AO2

More Conditions Fewer Conditions

Pressure 30.31 in
Visibility 10.0 miles
Clouds Scattered Clouds 700 ft
Dew Point 51 °F
Humidity 94%
Rainfall 0.00 in
Snow Depth 2 in
UV 0 out of 12
Pollen 8.50 out of 12
Air Quality Not available.
Flu Activity Not available.
METAR KSRR 150955Z AUTO 27003KT 10SM SCT007 12/12 A3031 RMK AO2

More Conditions Fewer Conditions

Nowcast | as of 3:32 am MDT on September 15, 2014

Patchy fog should decrease in coverage along the east slopes of the Central Mountain mountain chain through 530 am MDT. Thicker fog banks may drop the visibility below a half mile in spots... especially from Wagon Mound southward to Moriarty and Ruidoso. Interstates 25 and 40 may be impacted.

×

10-Day Weather Forecast

Almanac

Astronomy

Sep. 15, 2014 Rise Set
Actual Time 6:45 AM MDT 7:08 PM MDT
Civil Twilight 6:20 AM MDT 7:33 PM MDT
Nautical Twilight 5:51 AM MDT 8:02 PM MDT
Astronomical Twilight 5:21 AM MDT 8:32 PM MDT
Moon No Moon Rise 1:30 PM MDT
Length of Visible Light 13h 12m
Length of Day
12h 22m
Tomorrow will be 2m 2s shorter.
Waning Gibbous, 57% of the Moon is Illuminated
Today
Waning Gibbous
Sep 15
Last Quarter
Sep 24
New
Oct 1
First Quarter
Oct 8
Full

Today's Extremes

State Highs State Lows

Community

WunderPhotos

Upload Photos

1,753,428 photos uploaded!

WunderBlogs® & News

Nearby

Snow Depth

Station Depth Elevation
Sierra Blanca 2 in 10280 ft
Lookout Mountain 0 in 8500 ft
McKnight Cabin 0 in 9240 ft
Wesner Springs 3 in 11120 ft
Quemazon 0 in 9500 ft

Earthquake Activity

City Distance Mag. Time & Date
No recent earthquake activity has been reported nearby.
Minimum magnitude displayed is 2.5.

Coastal Water Temperatures

Place Temperature
No Stations Reporting

Nearby Weather Stations